createdAt,value
2022-07-26T00:03:50.601Z,15.1
2022-07-26T00:08:51.896Z,15
2022-07-26T00:13:49.145Z,14.7
2022-07-26T00:18:47.069Z,14.5
2022-07-26T00:23:45.108Z,14.4
2022-07-26T00:28:43.233Z,14.4
2022-07-26T00:33:41.180Z,14.4
2022-07-26T00:38:39.452Z,14.4
2022-07-26T00:43:37.423Z,14.3
2022-07-26T00:48:35.556Z,14.3
2022-07-26T00:53:33.610Z,14.3
2022-07-26T00:58:31.966Z,14.5
2022-07-26T01:03:30.422Z,14.3
2022-07-26T01:08:27.865Z,14.1
2022-07-26T01:13:25.873Z,14
2022-07-26T01:18:23.854Z,13.8
2022-07-26T01:23:21.615Z,13.6
2022-07-26T01:28:20.407Z,13.5
2022-07-26T01:33:17.698Z,13.5
2022-07-26T01:38:15.737Z,13.5
2022-07-26T01:43:13.808Z,13.5
2022-07-26T01:48:11.863Z,13.5
2022-07-26T01:53:09.931Z,13.4
2022-07-26T01:58:07.860Z,13.2
2022-07-26T02:03:05.723Z,13.2
2022-07-26T02:08:03.471Z,13.2
2022-07-26T02:13:01.358Z,13.2
2022-07-26T02:17:59.426Z,13.1
2022-07-26T02:22:57.149Z,13
2022-07-26T02:27:55.154Z,13
2022-07-26T02:32:53.103Z,12.9
2022-07-26T02:37:51.173Z,13
2022-07-26T02:42:49.154Z,12.9
2022-07-26T02:47:47.217Z,13
2022-07-26T02:52:45.323Z,13
2022-07-26T02:57:45.636Z,12.9
2022-07-26T03:02:41.945Z,12.9
2022-07-26T03:07:39.772Z,12.8
2022-07-26T03:12:38.053Z,12.8
2022-07-26T03:17:36.012Z,12.9
2022-07-26T03:22:34.070Z,12.9
2022-07-26T03:27:32.310Z,13
2022-07-26T03:32:30.450Z,13
2022-07-26T03:37:44.882Z,13.5
2022-07-26T03:42:27.681Z,14.3
2022-07-26T03:47:26.534Z,15.3
2022-07-26T03:52:26.167Z,17.4
2022-07-26T03:57:28.259Z,19.7
2022-07-26T04:02:25.850Z,21.2
2022-07-26T04:07:24.857Z,22.3
2022-07-26T04:12:23.748Z,23.2
2022-07-26T04:17:22.661Z,23.7
2022-07-26T04:22:21.622Z,24.5
2022-07-26T04:27:20.667Z,25.7
2022-07-26T04:32:20.152Z,26.7
2022-07-26T04:37:18.871Z,27.8
2022-07-26T04:42:17.287Z,27.9
2022-07-26T04:47:16.180Z,27.8
2022-07-26T04:52:14.394Z,27.4
2022-07-26T04:57:12.241Z,27
2022-07-26T05:02:10.058Z,27.3
2022-07-26T05:07:08.244Z,27.8
2022-07-26T05:12:06.250Z,28.5
2022-07-26T05:17:08.626Z,28.9
2022-07-26T05:22:02.597Z,29.1
2022-07-26T05:27:01.212Z,29.6
2022-07-26T05:31:59.541Z,30.3
2022-07-26T05:36:58.130Z,30.9
2022-07-26T05:41:56.554Z,31.4
2022-07-26T05:46:55.132Z,31.8
2022-07-26T05:51:56.928Z,32.7
2022-07-26T05:56:52.262Z,33.5
2022-07-26T06:01:51.303Z,34.1
2022-07-26T06:06:49.938Z,34.7
2022-07-26T06:11:48.545Z,35.5
2022-07-26T06:16:47.366Z,35.3
2022-07-26T06:21:46.055Z,35.3
2022-07-26T06:26:45.188Z,36.5
2022-07-26T06:31:43.605Z,36
2022-07-26T06:36:41.326Z,36.3
2022-07-26T06:41:40.201Z,36.5
2022-07-26T06:46:39.029Z,36.6
2022-07-26T06:51:37.198Z,36.7
2022-07-26T06:56:35.483Z,37.1
2022-07-26T07:01:52.077Z,36.9
2022-07-26T07:06:30.966Z,37.1
2022-07-26T07:11:29.312Z,36.9
2022-07-26T07:16:27.601Z,37.2
2022-07-26T07:21:26.376Z,38.1
2022-07-26T07:26:24.881Z,38.2
2022-07-26T07:31:25.893Z,38.3
2022-07-26T07:36:21.433Z,38.6
2022-07-26T07:41:19.341Z,37
2022-07-26T07:46:17.472Z,38.7
2022-07-26T07:51:16.048Z,39.5
2022-07-26T07:56:14.892Z,40.4
2022-07-26T08:01:14.595Z,41.4
2022-07-26T08:06:12.845Z,40.8
2022-07-26T08:11:11.111Z,40.8
2022-07-26T08:16:09.456Z,42.1
2022-07-26T08:21:07.458Z,42.6
2022-07-26T08:26:06.896Z,42.8
2022-07-26T08:31:05.008Z,43.4
2022-07-26T08:36:03.192Z,42.8
2022-07-26T08:41:01.518Z,43.1
2022-07-26T08:45:59.478Z,43.6
2022-07-26T08:50:56.787Z,42.5
2022-07-26T08:56:06.741Z,43.1
2022-07-26T09:00:52.860Z,42.6
2022-07-26T09:05:50.800Z,42.9
2022-07-26T09:10:48.193Z,42.6
2022-07-26T09:15:46.738Z,43.4
2022-07-26T09:20:44.719Z,42.6
2022-07-26T09:25:41.915Z,41.9
2022-07-26T09:30:40.760Z,42.8
2022-07-26T09:35:50.338Z,43.2
2022-07-26T09:40:36.574Z,42.7
2022-07-26T09:45:34.992Z,43.3
2022-07-26T09:50:32.354Z,42.4
2022-07-26T09:55:36.645Z,42.6
2022-07-26T10:00:28.188Z,42.6
2022-07-26T10:05:26.904Z,43.8
2022-07-26T10:10:24.470Z,43.7
2022-07-26T10:15:22.431Z,43.9
2022-07-26T10:20:24.484Z,43.9
2022-07-26T10:25:18.254Z,43.7
2022-07-26T10:30:16.054Z,42.9
2022-07-26T10:35:14.403Z,43.4
2022-07-26T10:40:12.211Z,42.6
2022-07-26T10:45:10.749Z,43.5
2022-07-26T10:50:08.803Z,42.1
2022-07-26T10:55:06.695Z,42.6
2022-07-26T11:00:03.799Z,41.8
2022-07-26T11:05:02.187Z,42.5
2022-07-26T11:10:00.539Z,42.5
2022-07-26T11:14:58.881Z,42.6
2022-07-26T11:19:57.958Z,43.7
2022-07-26T11:24:55.943Z,43.4
2022-07-26T11:29:54.357Z,44
2022-07-26T11:34:52.351Z,44.2
2022-07-26T11:39:50.063Z,42.5
2022-07-26T11:44:48.565Z,42.8
2022-07-26T11:49:52.688Z,44.3
2022-07-26T11:54:46.000Z,44.4
2022-07-26T11:59:44.008Z,45
2022-07-26T12:04:42.349Z,44.6
2022-07-26T12:09:40.325Z,44.6
2022-07-26T12:14:38.294Z,43.7
2022-07-26T12:19:36.579Z,43.7
2022-07-26T12:24:34.043Z,43.9
2022-07-26T12:29:31.961Z,42.8
2022-07-26T12:34:29.239Z,42.7
2022-07-26T12:39:26.986Z,43.3
2022-07-26T12:44:25.702Z,42.6
2022-07-26T12:49:23.787Z,43.2
2022-07-26T12:54:24.185Z,43
2022-07-26T12:59:19.537Z,42.5
2022-07-26T13:04:17.594Z,40.7
2022-07-26T13:09:17.070Z,42.3
2022-07-26T13:14:13.441Z,40.7
2022-07-26T13:19:10.763Z,39.9
2022-07-26T13:24:09.331Z,40.3
2022-07-26T13:29:06.864Z,40.5
2022-07-26T13:34:04.644Z,40.3
2022-07-26T13:39:01.833Z,38.8
2022-07-26T13:43:59.733Z,39
2022-07-26T13:49:00.821Z,39.2
2022-07-26T13:53:55.538Z,38.9
2022-07-26T13:58:53.075Z,38.5
2022-07-26T14:03:50.398Z,38.1
2022-07-26T14:08:47.636Z,36.7
2022-07-26T14:13:45.726Z,36.9
2022-07-26T14:18:43.698Z,36.1
2022-07-26T14:23:41.607Z,35.9
2022-07-26T14:28:39.466Z,35.7
2022-07-26T14:33:37.463Z,35.1
2022-07-26T14:38:35.209Z,34.7
2022-07-26T14:43:32.590Z,33.8
2022-07-26T14:48:52.116Z,33.9
2022-07-26T14:53:28.950Z,34.2
2022-07-26T14:58:27.247Z,33.8
2022-07-26T15:03:25.244Z,33.6
2022-07-26T15:08:23.046Z,33
2022-07-26T15:13:20.780Z,32.6
2022-07-26T15:18:18.336Z,31.9
2022-07-26T15:23:16.036Z,31.6
2022-07-26T15:28:13.546Z,31.2
2022-07-26T15:33:11.724Z,31.5
2022-07-26T15:38:10.178Z,32
2022-07-26T15:43:08.127Z,31.1
2022-07-26T15:48:14.814Z,30.6
2022-07-26T15:53:03.596Z,30.2
2022-07-26T15:58:01.452Z,30
2022-07-26T16:02:59.171Z,29.4
2022-07-26T16:07:56.759Z,28.8
2022-07-26T16:12:54.336Z,28.3
2022-07-26T16:17:52.191Z,28.1
2022-07-26T16:22:50.218Z,27.9
2022-07-26T16:27:48.167Z,27.6
2022-07-26T16:32:46.265Z,27.4
2022-07-26T16:37:44.179Z,27.1
2022-07-26T16:42:42.333Z,27
2022-07-26T16:47:40.487Z,26.8
2022-07-26T16:52:38.428Z,26.6
2022-07-26T16:57:36.352Z,26.5
2022-07-26T17:02:34.427Z,26.2
2022-07-26T17:07:32.290Z,26.1
2022-07-26T17:12:30.016Z,26.1
2022-07-26T17:17:28.272Z,26.2
2022-07-26T17:22:26.329Z,26.1
2022-07-26T17:27:24.333Z,25.9
2022-07-26T17:32:22.198Z,25.7
2022-07-26T17:37:21.802Z,25.3
2022-07-26T17:42:18.199Z,25.3
2022-07-26T17:47:17.844Z,25
2022-07-26T17:52:14.149Z,24.6
2022-07-26T17:57:11.996Z,24.2
2022-07-26T18:02:09.997Z,23.9
2022-07-26T18:07:07.846Z,23.6
2022-07-26T18:12:05.813Z,23.4
2022-07-26T18:17:03.745Z,23.2
2022-07-26T18:22:05.865Z,23.2
2022-07-26T18:26:59.870Z,23
2022-07-26T18:31:58.303Z,23
2022-07-26T18:36:56.457Z,22.8
2022-07-26T18:41:54.278Z,22.6
2022-07-26T18:46:52.652Z,22.4
2022-07-26T18:51:50.700Z,22
2022-07-26T18:56:48.926Z,21.7
2022-07-26T19:01:46.792Z,21.3
2022-07-26T19:06:44.841Z,21
2022-07-26T19:11:43.222Z,20.6
2022-07-26T19:16:41.327Z,20.5
2022-07-26T19:21:39.306Z,20.4
2022-07-26T19:26:37.386Z,20.2
2022-07-26T19:31:35.700Z,20.1
2022-07-26T19:36:33.643Z,19.9
2022-07-26T19:41:31.665Z,19.8
2022-07-26T19:46:29.862Z,19.7
2022-07-26T19:51:28.021Z,19.8
2022-07-26T19:56:26.186Z,19.5
2022-07-26T20:01:24.147Z,19.4
2022-07-26T20:06:22.175Z,19.3
2022-07-26T20:11:20.470Z,19.5
2022-07-26T20:16:18.682Z,19.5
2022-07-26T20:21:16.755Z,19.2
2022-07-26T20:26:14.954Z,19.2
2022-07-26T20:31:13.323Z,19.2
2022-07-26T20:36:11.655Z,19.2
2022-07-26T20:41:10.142Z,19.2
2022-07-26T20:46:08.914Z,19.2
2022-07-26T20:51:07.491Z,19.2
2022-07-26T20:56:06.171Z,19.2
2022-07-26T21:01:04.363Z,19.2
2022-07-26T21:06:02.585Z,19.2
2022-07-26T21:11:00.714Z,19
2022-07-26T21:15:58.632Z,18.6
2022-07-26T21:20:56.600Z,18.4
2022-07-26T21:25:57.958Z,18.1
2022-07-26T21:30:52.637Z,18.3
2022-07-26T21:35:50.541Z,18.1
2022-07-26T21:40:48.794Z,18
2022-07-26T21:45:46.949Z,18
2022-07-26T21:50:45.069Z,18.1
2022-07-26T21:55:43.090Z,18.1
2022-07-26T22:00:41.130Z,17.8
2022-07-26T22:05:39.186Z,17.5
2022-07-26T22:10:42.372Z,17.5
2022-07-26T22:15:35.201Z,17.4
2022-07-26T22:20:33.238Z,17.2
2022-07-26T22:25:31.678Z,17.2
2022-07-26T22:30:30.030Z,17.2
2022-07-26T22:35:32.391Z,17.1
2022-07-26T22:40:26.409Z,17
2022-07-26T22:45:24.985Z,16.9
2022-07-26T22:50:22.986Z,16.7
2022-07-26T22:55:21.056Z,16.7
2022-07-26T23:00:19.183Z,16.6
2022-07-26T23:05:17.232Z,16.5
2022-07-26T23:10:15.320Z,16.4
2022-07-26T23:15:13.636Z,16.4
2022-07-26T23:20:11.627Z,16.2
2022-07-26T23:25:09.796Z,16.3
2022-07-26T23:30:07.676Z,16.2
2022-07-26T23:35:05.724Z,16.3
2022-07-26T23:40:03.733Z,16.3
2022-07-26T23:45:02.012Z,16.5
2022-07-26T23:50:00.185Z,16.3
2022-07-26T23:54:58.031Z,16.2
2022-07-26T23:59:55.971Z,16.1
